createdAt,value
2019-01-25T00:00:06.420Z,192.70
2019-01-25T00:02:33.472Z,158.77
2019-01-25T00:05:00.552Z,170.67
2019-01-25T00:07:27.636Z,178.77
2019-01-25T00:09:58.596Z,178.63
2019-01-25T00:12:23.822Z,166.43
2019-01-25T00:14:50.897Z,189.27
2019-01-25T00:17:17.976Z,179.70
2019-01-25T00:19:45.193Z,146.23
2019-01-25T00:22:12.284Z,176.53
2019-01-25T00:24:41.365Z,201.33
2019-01-25T00:27:08.468Z,190.10
2019-01-25T00:29:35.540Z,192.93
2019-01-25T00:32:02.727Z,165.13
2019-01-25T00:34:29.915Z,173.40
2019-01-25T00:36:56.953Z,164.10
2019-01-25T00:39:24.028Z,177.40
2019-01-25T00:41:51.119Z,182.47
2019-01-25T00:44:18.185Z,185.90
2019-01-25T00:46:45.253Z,183.47
2019-01-25T00:49:12.456Z,183.07
2019-01-25T00:51:39.525Z,187.40
2019-01-25T00:54:06.596Z,206.77
2019-01-25T00:56:33.735Z,178.73
2019-01-25T00:59:00.795Z,167.90
2019-01-25T01:01:27.951Z,194.53
2019-01-25T01:03:55.081Z,201.00
2019-01-25T01:06:40.354Z,214.53
2019-01-25T01:09:09.109Z,209.97
2019-01-25T01:11:36.159Z,187.77
2019-01-25T01:14:03.543Z,201.00
2019-01-25T01:16:30.628Z,212.33
2019-01-25T01:18:57.702Z,219.30
2019-01-25T01:21:24.879Z,215.40
2019-01-25T01:23:52.081Z,222.10
2019-01-25T01:26:19.129Z,246.07
2019-01-25T01:28:46.212Z,244.70
2019-01-25T01:31:13.317Z,253.43
2019-01-25T01:33:40.589Z,244.70
2019-01-25T01:36:07.651Z,266.07
2019-01-25T01:38:34.840Z,259.93
2019-01-25T01:41:01.979Z,257.27
2019-01-25T01:43:29.046Z,253.13
2019-01-25T01:45:56.108Z,233.90
2019-01-25T01:48:23.200Z,238.63
2019-01-25T01:50:50.262Z,251.00
2019-01-25T01:53:17.319Z,243.63
2019-01-25T01:55:44.435Z,207.67
2019-01-25T01:58:11.490Z,207.93
2019-01-25T02:00:38.578Z,242.73
2019-01-25T02:03:06.805Z,218.07
2019-01-25T02:05:33.858Z,217.77
2019-01-25T02:08:00.916Z,229.43
2019-01-25T02:10:29.678Z,241.97
2019-01-25T02:12:57.228Z,221.33
2019-01-25T02:15:24.897Z,219.80
2019-01-25T02:17:52.853Z,240.57
2019-01-25T02:20:24.971Z,261.20
2019-01-25T02:22:52.043Z,228.00
2019-01-25T02:25:19.092Z,249.20
2019-01-25T02:27:46.409Z,222.17
2019-01-25T02:30:18.115Z,192.27
2019-01-25T02:32:45.188Z,229.43
2019-01-25T02:35:12.290Z,217.07
2019-01-25T02:37:39.464Z,230.90
2019-01-25T02:40:07.792Z,203.47
2019-01-25T02:42:34.898Z,217.53
2019-01-25T02:45:02.006Z,219.10
2019-01-25T02:47:29.053Z,194.97
2019-01-25T02:49:56.126Z,198.37
2019-01-25T02:52:23.216Z,215.27
2019-01-25T02:54:50.302Z,211.07
2019-01-25T02:57:17.373Z,204.13
2019-01-25T02:59:44.516Z,182.13
2019-01-25T03:02:11.654Z,182.17
2019-01-25T03:04:38.712Z,191.07
2019-01-25T03:07:05.801Z,194.23
2019-01-25T03:09:52.416Z,199.73
2019-01-25T03:12:19.511Z,188.13
2019-01-25T03:14:46.624Z,191.13
2019-01-25T03:17:13.734Z,181.03
2019-01-25T03:19:40.892Z,171.07
2019-01-25T03:22:07.964Z,179.30
2019-01-25T03:24:35.049Z,161.27
2019-01-25T03:27:02.153Z,159.77
2019-01-25T03:29:29.219Z,182.23
2019-01-25T03:31:56.289Z,178.23
2019-01-25T03:34:23.440Z,173.17
2019-01-25T03:36:50.497Z,169.13
2019-01-25T03:39:17.556Z,160.87
2019-01-25T03:41:44.648Z,161.43
2019-01-25T03:44:13.787Z,147.97
2019-01-25T03:46:40.838Z,163.63
2019-01-25T03:49:07.935Z,150.70
2019-01-25T03:51:36.795Z,178.00
2019-01-25T03:54:04.213Z,150.50
2019-01-25T03:56:31.295Z,170.07
2019-01-25T03:58:58.357Z,161.80
2019-01-25T04:01:25.407Z,164.37
2019-01-25T04:03:52.538Z,162.33
2019-01-25T04:06:19.598Z,166.83
2019-01-25T04:08:46.702Z,170.03
2019-01-25T04:11:13.788Z,152.30
2019-01-25T04:13:40.889Z,166.17
2019-01-25T04:16:11.945Z,154.63
2019-01-25T04:18:39.027Z,155.63
2019-01-25T04:21:21.155Z,170.23
2019-01-25T04:23:48.229Z,161.70
2019-01-25T04:26:15.307Z,168.40
2019-01-25T04:28:42.486Z,172.13
2019-01-25T04:31:09.571Z,153.93
2019-01-25T04:33:36.687Z,139.87
2019-01-25T04:36:04.183Z,160.80
2019-01-25T04:38:31.277Z,151.97
2019-01-25T04:40:58.450Z,180.03
2019-01-25T04:43:25.819Z,166.27
2019-01-25T04:45:53.019Z,169.40
2019-01-25T04:49:17.369Z,160.13
2019-01-25T04:51:44.451Z,158.37
2019-01-25T04:54:11.567Z,157.17
2019-01-25T04:56:38.868Z,162.00
2019-01-25T04:59:06.008Z,165.00
2019-01-25T05:01:33.115Z,163.33
2019-01-25T05:04:00.164Z,157.23
2019-01-25T05:06:27.225Z,162.93
2019-01-25T05:08:54.445Z,167.73
2019-01-25T05:11:21.513Z,160.00
2019-01-25T05:13:48.559Z,170.50
2019-01-25T05:16:15.746Z,185.03
2019-01-25T05:18:43.434Z,165.13
2019-01-25T05:21:25.216Z,166.67
2019-01-25T05:23:52.396Z,178.27
2019-01-25T05:26:19.418Z,164.67
2019-01-25T05:28:46.490Z,162.73
2019-01-25T05:31:14.492Z,178.50
2019-01-25T05:33:49.724Z,176.10
2019-01-25T05:36:16.850Z,168.60
2019-01-25T05:38:46.945Z,165.73
2019-01-25T05:41:14.006Z,171.77
2019-01-25T05:43:42.182Z,165.57
2019-01-25T05:46:09.332Z,161.27
2019-01-25T05:48:36.390Z,174.77
2019-01-25T05:51:05.276Z,175.70
2019-01-25T05:53:32.355Z,188.20
2019-01-25T05:55:59.502Z,173.00
2019-01-25T05:58:26.652Z,166.90
2019-01-25T06:00:53.704Z,178.33
2019-01-25T06:03:20.805Z,179.43
2019-01-25T06:05:47.891Z,188.23
2019-01-25T06:08:29.341Z,175.43
2019-01-25T06:10:57.716Z,180.40
2019-01-25T06:13:24.863Z,170.27
2019-01-25T06:15:51.928Z,169.07
2019-01-25T06:18:19.034Z,181.20
2019-01-25T06:20:50.741Z,173.73
2019-01-25T06:23:17.772Z,197.63
2019-01-25T06:25:50.337Z,173.07
2019-01-25T06:28:17.412Z,181.63
2019-01-25T06:30:45.888Z,179.93
2019-01-25T06:33:12.974Z,199.53
2019-01-25T06:35:41.863Z,173.47
2019-01-25T06:38:08.932Z,174.70
2019-01-25T06:40:36.036Z,176.63
2019-01-25T06:43:03.316Z,178.70
2019-01-25T06:45:30.437Z,178.57
2019-01-25T06:47:57.537Z,186.93
2019-01-25T06:50:24.712Z,180.53
2019-01-25T06:52:51.746Z,173.77
2019-01-25T06:55:18.942Z,177.73
2019-01-25T06:57:55.166Z,172.90
2019-01-25T07:00:24.524Z,164.73
2019-01-25T07:02:51.590Z,186.60
2019-01-25T07:05:18.635Z,168.77
2019-01-25T07:07:46.195Z,178.13
2019-01-25T07:10:15.888Z,176.17
2019-01-25T07:12:42.912Z,180.83
2019-01-25T07:15:10.341Z,168.90
2019-01-25T07:17:37.411Z,178.10
2019-01-25T07:20:06.871Z,188.70
2019-01-25T07:22:33.935Z,167.60
2019-01-25T07:25:01.090Z,178.30
2019-01-25T07:27:28.206Z,192.13
2019-01-25T07:29:55.296Z,191.30
2019-01-25T07:32:22.473Z,178.20
2019-01-25T07:34:49.606Z,175.73
2019-01-25T07:37:29.321Z,178.70
2019-01-25T07:39:56.634Z,180.40
2019-01-25T07:42:23.820Z,190.73
2019-01-25T07:44:50.866Z,194.23
2019-01-25T07:47:17.934Z,182.50
2019-01-25T07:49:45.020Z,182.27
2019-01-25T07:52:13.909Z,188.33
2019-01-25T07:54:40.966Z,202.27
2019-01-25T07:57:09.060Z,185.13
2019-01-25T07:59:36.093Z,180.63
2019-01-25T08:02:03.137Z,191.77
2019-01-25T08:04:30.210Z,185.80
2019-01-25T08:06:57.238Z,170.43
2019-01-25T08:09:24.339Z,177.67
2019-01-25T08:11:51.469Z,187.30
2019-01-25T08:14:18.495Z,185.60
2019-01-25T08:16:45.550Z,172.20
2019-01-25T08:19:12.778Z,178.53
2019-01-25T08:21:39.937Z,167.90
2019-01-25T08:24:06.982Z,189.37
2019-01-25T08:26:34.078Z,173.53
2019-01-25T08:29:01.113Z,171.23
2019-01-25T08:31:28.174Z,174.50
2019-01-25T08:33:55.299Z,170.83
2019-01-25T08:36:22.466Z,184.17
2019-01-25T08:38:51.349Z,172.27
2019-01-25T08:41:18.426Z,181.03
2019-01-25T08:43:45.585Z,168.37
2019-01-25T08:46:12.578Z,183.77
2019-01-25T08:48:39.702Z,179.07
2019-01-25T08:51:08.204Z,175.57
2019-01-25T08:53:35.303Z,187.10
2019-01-25T08:56:02.369Z,180.10
2019-01-25T08:58:29.433Z,186.97
2019-01-25T09:00:56.498Z,183.63
2019-01-25T09:03:23.583Z,182.70
2019-01-25T09:05:50.676Z,185.20
2019-01-25T09:08:17.726Z,173.27
2019-01-25T09:10:44.810Z,183.03
2019-01-25T09:13:11.932Z,188.63
2019-01-25T09:15:38.956Z,200.63
2019-01-25T09:18:06.938Z,200.30
2019-01-25T09:20:35.468Z,199.03
2019-01-25T09:23:02.507Z,196.23
2019-01-25T09:25:29.520Z,231.13
2019-01-25T09:27:56.612Z,216.30
2019-01-25T09:30:23.654Z,196.33
2019-01-25T09:32:50.678Z,208.57
2019-01-25T09:35:18.008Z,206.03
2019-01-25T09:37:45.292Z,215.00
2019-01-25T09:40:15.538Z,181.93
2019-01-25T09:43:28.965Z,193.23
2019-01-25T09:45:56.127Z,160.97
2019-01-25T09:48:23.178Z,186.33
2019-01-25T09:50:52.903Z,150.80
2019-01-25T09:53:19.358Z,140.87
2019-01-25T09:55:46.406Z,135.87
2019-01-25T09:58:15.328Z,127.33
2019-01-25T10:00:49.386Z,108.17
2019-01-25T10:03:16.417Z,108.13
2019-01-25T10:05:43.668Z,111.87
2019-01-25T10:08:10.692Z,112.50
2019-01-25T10:10:37.834Z,108.87
2019-01-25T10:13:04.917Z,110.33
2019-01-25T10:15:32.171Z,113.37
2019-01-25T10:17:59.218Z,102.00
2019-01-25T10:20:26.373Z,98.67
2019-01-25T10:22:53.475Z,75.53
2019-01-25T10:25:20.542Z,74.30
2019-01-25T10:27:47.735Z,70.50
2019-01-25T10:30:17.575Z,73.33
2019-01-25T10:32:44.640Z,86.63
2019-01-25T10:35:11.786Z,85.60
2019-01-25T10:37:39.067Z,80.73
2019-01-25T10:40:09.229Z,87.20
2019-01-25T10:42:36.328Z,93.13
2019-01-25T10:45:05.433Z,88.13
2019-01-25T10:47:32.505Z,80.77
2019-01-25T10:49:59.601Z,87.80
2019-01-25T10:52:26.633Z,77.37
2019-01-25T10:54:53.736Z,82.23
2019-01-25T10:57:20.782Z,83.43
2019-01-25T10:59:47.853Z,84.10
2019-01-25T11:02:14.883Z,78.90
2019-01-25T11:04:41.994Z,90.97
2019-01-25T11:07:10.081Z,90.53
2019-01-25T11:09:38.299Z,91.73
2019-01-25T11:12:05.372Z,85.47
2019-01-25T11:14:33.547Z,81.77
2019-01-25T11:17:00.609Z,80.37
2019-01-25T11:19:27.658Z,82.17
2019-01-25T11:21:54.722Z,80.83
2019-01-25T11:24:21.777Z,79.10
2019-01-25T11:26:48.813Z,81.07
2019-01-25T11:29:15.912Z,74.70
2019-01-25T11:31:42.961Z,76.70
2019-01-25T11:34:10.093Z,85.93
2019-01-25T11:36:37.170Z,71.43
2019-01-25T11:39:08.157Z,74.67
2019-01-25T11:41:35.223Z,73.57
2019-01-25T11:44:02.409Z,65.00
2019-01-25T11:46:29.517Z,70.63
2019-01-25T11:48:56.636Z,57.67
2019-01-25T11:51:23.708Z,65.10
2019-01-25T11:53:50.798Z,62.53
2019-01-25T11:56:17.839Z,63.33
2019-01-25T11:58:44.920Z,57.97
2019-01-25T12:01:12.003Z,70.00
2019-01-25T12:03:39.153Z,69.30
2019-01-25T12:06:06.191Z,74.40
2019-01-25T12:08:33.292Z,70.00
2019-01-25T12:11:00.386Z,74.83
2019-01-25T12:13:27.433Z,81.00
2019-01-25T12:15:54.493Z,61.17
2019-01-25T12:18:21.624Z,60.23
2019-01-25T12:20:48.732Z,68.27
2019-01-25T12:23:15.811Z,59.20
2019-01-25T12:25:42.862Z,62.73
2019-01-25T12:28:09.921Z,62.60
2019-01-25T12:30:38.456Z,58.77
2019-01-25T12:33:06.628Z,59.63
2019-01-25T12:35:38.972Z,57.27
2019-01-25T12:38:06.080Z,67.37
2019-01-25T12:40:33.581Z,57.33
2019-01-25T12:43:00.664Z,58.93
2019-01-25T12:45:27.963Z,51.43
2019-01-25T12:47:55.208Z,62.07
2019-01-25T12:50:25.110Z,56.70
2019-01-25T12:52:52.381Z,58.57
2019-01-25T12:55:21.226Z,60.90
2019-01-25T12:57:48.401Z,53.13
2019-01-25T13:00:17.131Z,54.77
2019-01-25T13:02:44.312Z,55.03
2019-01-25T13:05:15.214Z,56.80
2019-01-25T13:07:42.271Z,53.33
2019-01-25T13:10:17.461Z,49.30
2019-01-25T13:12:44.670Z,57.63
2019-01-25T13:15:26.868Z,44.60
2019-01-25T13:17:53.946Z,55.73
2019-01-25T13:20:25.561Z,47.27
2019-01-25T13:22:52.756Z,55.90
2019-01-25T13:25:19.987Z,52.83
2019-01-25T13:27:47.132Z,47.03
2019-01-25T13:30:19.775Z,45.73
2019-01-25T13:32:47.152Z,45.50
2019-01-25T13:35:14.631Z,42.00
2019-01-25T13:37:41.842Z,47.60
2019-01-25T13:40:11.750Z,43.93
2019-01-25T13:42:38.842Z,42.50
2019-01-25T13:45:07.072Z,46.10
2019-01-25T13:47:34.229Z,48.37
2019-01-25T13:50:01.323Z,43.57
2019-01-25T13:52:28.400Z,46.63
2019-01-25T13:54:55.578Z,43.13
2019-01-25T13:57:22.851Z,41.87
2019-01-25T13:59:49.919Z,44.37
2019-01-25T14:02:16.991Z,45.67
2019-01-25T14:04:45.763Z,42.97
2019-01-25T14:07:12.918Z,48.97
2019-01-25T14:09:39.972Z,46.30
2019-01-25T14:12:08.641Z,48.23
2019-01-25T14:14:36.948Z,51.50
2019-01-25T14:17:04.121Z,44.07
2019-01-25T14:19:31.320Z,44.80
2019-01-25T14:21:58.403Z,45.73
2019-01-25T14:24:25.476Z,48.10
2019-01-25T14:26:52.572Z,44.60
2019-01-25T14:29:19.617Z,46.93
2019-01-25T14:31:46.704Z,46.17
2019-01-25T14:34:13.833Z,49.30
2019-01-25T14:36:40.892Z,47.33
2019-01-25T14:39:08.143Z,39.93
2019-01-25T14:41:35.244Z,42.90
2019-01-25T14:44:02.338Z,50.03
2019-01-25T14:46:29.412Z,50.33
2019-01-25T14:48:56.516Z,49.07
2019-01-25T14:51:23.623Z,47.53
2019-01-25T14:53:51.155Z,46.70
2019-01-25T14:56:18.370Z,49.40
2019-01-25T14:58:45.506Z,46.27
2019-01-25T15:01:12.658Z,49.30
2019-01-25T15:03:39.894Z,49.23
2019-01-25T15:06:06.948Z,53.17
2019-01-25T15:08:34.087Z,50.30
2019-01-25T15:11:01.176Z,48.93
2019-01-25T15:13:28.251Z,53.30
2019-01-25T15:15:55.325Z,52.13
2019-01-25T15:18:22.440Z,52.03
2019-01-25T15:20:49.498Z,61.60
2019-01-25T15:23:16.553Z,59.43
2019-01-25T15:25:43.791Z,63.20
2019-01-25T15:28:10.909Z,54.43
2019-01-25T15:30:38.274Z,59.60
2019-01-25T15:33:05.528Z,67.40
2019-01-25T15:35:34.410Z,68.67
2019-01-25T15:38:01.646Z,66.10
2019-01-25T15:40:29.165Z,75.03
2019-01-25T15:42:56.260Z,71.20
2019-01-25T15:45:23.322Z,66.37
2019-01-25T15:47:50.791Z,78.17
2019-01-25T15:50:20.217Z,79.83
2019-01-25T15:52:47.344Z,82.27
2019-01-25T15:55:15.784Z,95.97
2019-01-25T15:57:42.917Z,96.83
2019-01-25T16:00:13.638Z,93.00
2019-01-25T16:02:40.899Z,107.67
2019-01-25T16:05:09.965Z,109.50
2019-01-25T16:07:37.176Z,109.10
2019-01-25T16:10:06.120Z,108.93
2019-01-25T16:12:33.304Z,110.60
2019-01-25T16:15:00.375Z,108.67
2019-01-25T16:17:27.656Z,99.27
2019-01-25T16:19:54.732Z,102.63
2019-01-25T16:22:21.922Z,116.37
2019-01-25T16:24:48.993Z,105.53
2019-01-25T16:27:16.046Z,100.50
2019-01-25T16:29:43.114Z,106.83
2019-01-25T16:32:10.397Z,109.37
2019-01-25T16:34:37.468Z,119.57
2019-01-25T16:37:04.537Z,108.97
2019-01-25T16:39:31.631Z,111.60
2019-01-25T16:41:58.700Z,115.93
2019-01-25T16:44:25.980Z,104.37
2019-01-25T16:46:53.014Z,96.43
2019-01-25T16:49:20.156Z,104.83
2019-01-25T16:51:47.290Z,106.37
2019-01-25T16:54:14.383Z,117.10
2019-01-25T16:56:41.438Z,107.07
2019-01-25T16:59:08.495Z,107.27
2019-01-25T17:01:35.702Z,121.17
2019-01-25T17:04:02.892Z,121.57
2019-01-25T17:06:29.972Z,116.80
2019-01-25T17:08:57.089Z,118.87
2019-01-25T17:11:24.201Z,106.60
2019-01-25T17:13:51.248Z,96.27
2019-01-25T17:16:18.639Z,107.77
2019-01-25T17:18:45.762Z,115.63
2019-01-25T17:21:12.833Z,87.30
2019-01-25T17:23:40.026Z,91.57
2019-01-25T17:26:07.226Z,89.73
2019-01-25T17:28:34.843Z,96.50
2019-01-25T17:31:01.947Z,99.80
2019-01-25T17:33:29.049Z,93.90
2019-01-25T17:35:59.179Z,87.73
2019-01-25T17:38:26.348Z,88.83
2019-01-25T17:40:53.550Z,83.60
2019-01-25T17:43:20.579Z,90.70
2019-01-25T17:45:47.695Z,94.80
2019-01-25T17:48:14.795Z,92.20
2019-01-25T17:50:41.852Z,91.13
2019-01-25T17:53:08.934Z,101.67
2019-01-25T17:55:35.968Z,104.43
2019-01-25T17:58:08.070Z,104.37
2019-01-25T18:00:48.675Z,112.50
2019-01-25T18:03:15.771Z,90.20
2019-01-25T18:05:43.014Z,102.57
2019-01-25T18:08:10.069Z,89.07
2019-01-25T18:10:37.194Z,107.83
2019-01-25T18:13:04.233Z,97.00
2019-01-25T18:15:31.278Z,87.87
2019-01-25T18:17:58.361Z,97.20
2019-01-25T18:20:25.441Z,97.53
2019-01-25T18:22:54.494Z,100.83
2019-01-25T18:25:25.717Z,106.20
2019-01-25T18:27:56.866Z,106.13
2019-01-25T18:30:28.315Z,96.83
2019-01-25T18:32:55.369Z,109.47
2019-01-25T18:35:22.410Z,103.77
2019-01-25T18:37:49.482Z,102.83
2019-01-25T18:40:16.704Z,105.93
2019-01-25T18:42:43.865Z,94.77
2019-01-25T18:45:10.965Z,91.67
2019-01-25T18:47:39.231Z,85.40
2019-01-25T18:50:08.757Z,93.00
2019-01-25T18:52:35.914Z,93.33
2019-01-25T18:55:05.317Z,92.77
2019-01-25T18:57:32.377Z,119.70
2019-01-25T18:59:59.912Z,97.13
2019-01-25T19:02:27.056Z,98.33
2019-01-25T19:04:54.201Z,95.97
2019-01-25T19:07:21.353Z,86.07
2019-01-25T19:09:48.431Z,92.43
2019-01-25T19:12:15.560Z,79.70
2019-01-25T19:14:43.909Z,89.93
2019-01-25T19:17:11.092Z,90.03
2019-01-25T19:19:39.238Z,95.80
2019-01-25T19:22:06.357Z,85.80
2019-01-25T19:24:33.687Z,96.33
2019-01-25T19:27:00.722Z,82.63
2019-01-25T19:29:27.916Z,93.20
2019-01-25T19:31:54.974Z,86.23
2019-01-25T19:34:22.026Z,74.77
2019-01-25T19:36:49.105Z,88.50
2019-01-25T19:39:16.207Z,83.50
2019-01-25T19:41:43.333Z,89.20
2019-01-25T19:44:10.425Z,85.60
2019-01-25T19:46:37.792Z,78.37
2019-01-25T19:49:05.151Z,68.63
2019-01-25T19:51:32.226Z,72.83
2019-01-25T19:53:59.638Z,70.10
2019-01-25T19:56:26.813Z,66.87
2019-01-25T19:58:53.850Z,62.30
2019-01-25T20:01:20.958Z,66.40
2019-01-25T20:03:47.999Z,57.20
2019-01-25T20:06:15.234Z,60.70
2019-01-25T20:08:43.298Z,55.23
2019-01-25T20:11:10.530Z,62.47
2019-01-25T20:13:37.592Z,57.73
2019-01-25T20:16:04.860Z,63.53
2019-01-25T20:18:31.953Z,61.23
2019-01-25T20:20:59.255Z,64.10
2019-01-25T20:23:26.350Z,64.90
2019-01-25T20:25:53.471Z,65.20
2019-01-25T20:28:20.645Z,62.93
2019-01-25T20:30:49.732Z,69.17
2019-01-25T20:33:16.844Z,62.23
2019-01-25T20:35:44.003Z,67.93
2019-01-25T20:38:11.076Z,75.03
2019-01-25T20:40:38.557Z,63.13
2019-01-25T20:43:05.938Z,67.23
2019-01-25T20:45:34.978Z,66.03
2019-01-25T20:48:02.769Z,66.17
2019-01-25T20:50:31.230Z,68.97
2019-01-25T20:52:58.625Z,70.20
2019-01-25T20:55:26.132Z,64.83
2019-01-25T20:57:53.996Z,63.00
2019-01-25T21:00:23.548Z,63.93
2019-01-25T21:02:50.786Z,70.57
2019-01-25T21:05:18.008Z,69.80
2019-01-25T21:07:51.064Z,83.27
2019-01-25T21:10:19.354Z,74.23
2019-01-25T21:12:47.831Z,69.37
2019-01-25T21:15:16.446Z,66.50
2019-01-25T21:17:43.663Z,66.10
2019-01-25T21:20:16.992Z,76.97
2019-01-25T21:22:48.095Z,71.63
2019-01-25T21:25:15.554Z,72.43
2019-01-25T21:27:42.845Z,74.07
2019-01-25T21:30:13.545Z,83.57
2019-01-25T21:32:40.954Z,74.60
2019-01-25T21:35:08.786Z,79.30
2019-01-25T21:37:37.439Z,89.07
2019-01-25T21:40:08.604Z,79.07
2019-01-25T21:42:35.537Z,83.63
2019-01-25T21:45:03.358Z,81.17
2019-01-25T21:47:30.832Z,88.23
2019-01-25T21:49:57.989Z,83.87
2019-01-25T21:52:25.005Z,87.67
2019-01-25T21:54:52.123Z,88.00
2019-01-25T21:57:19.244Z,83.60
2019-01-25T21:59:46.313Z,89.60
2019-01-25T22:02:13.509Z,79.40
2019-01-25T22:04:40.562Z,88.63
2019-01-25T22:07:07.601Z,88.87
2019-01-25T22:09:34.683Z,94.43
2019-01-25T22:12:02.142Z,85.80
2019-01-25T22:14:29.197Z,92.20
2019-01-25T22:16:56.336Z,83.80
2019-01-25T22:19:23.484Z,99.37
2019-01-25T22:21:50.632Z,93.73
2019-01-25T22:24:17.691Z,92.27
2019-01-25T22:26:44.761Z,101.60
2019-01-25T22:29:13.100Z,94.10
2019-01-25T22:31:40.214Z,118.37
2019-01-25T22:34:07.303Z,105.53
2019-01-25T22:36:34.423Z,102.30
2019-01-25T22:39:01.453Z,112.43
2019-01-25T22:41:28.539Z,109.80
2019-01-25T22:43:55.608Z,121.47
2019-01-25T22:46:22.666Z,114.47
2019-01-25T22:48:49.776Z,125.53
2019-01-25T22:51:16.860Z,115.27
2019-01-25T22:53:43.897Z,118.63
2019-01-25T22:56:48.696Z,122.73
2019-01-25T22:59:15.773Z,113.87
2019-01-25T23:01:43.424Z,129.27
2019-01-25T23:04:52.166Z,145.87
2019-01-25T23:07:25.471Z,135.40
2019-01-25T23:10:01.152Z,139.00
2019-01-25T23:12:28.248Z,146.13
2019-01-25T23:14:55.267Z,131.80
2019-01-25T23:17:22.395Z,145.93
2019-01-25T23:20:50.645Z,152.77
2019-01-25T23:23:17.721Z,154.90
2019-01-25T23:25:44.791Z,167.53
2019-01-25T23:28:11.872Z,170.47
2019-01-25T23:30:38.957Z,175.67
2019-01-25T23:33:06.021Z,177.53
2019-01-25T23:35:33.310Z,169.83
2019-01-25T23:38:00.817Z,167.53
2019-01-25T23:40:27.911Z,196.07
2019-01-25T23:42:55.041Z,180.23
2019-01-25T23:45:22.100Z,174.27
2019-01-25T23:47:49.147Z,182.37
2019-01-25T23:50:16.333Z,194.23
2019-01-25T23:52:43.485Z,195.73
2019-01-25T23:55:10.545Z,213.17
2019-01-25T23:57:39.004Z,199.83
